Time,TemperatureF,DewpointF,PressureIn,WindDirection,WindDirectionDegrees,WindSpeedMPH,WindSpeedGustMPH,Humidity,HourlyPrecipIn,Conditions,Clouds,dailyrainin,SoftwareType,DateUTC
2013-02-09 00:01:00,28.0,20.0,-100.00,North,-999,0.0,0.0,71,-99.99,,,0.00,,2013-02-09 07:01:00,
2013-02-09 00:11:00,27.0,19.0,-100.00,North,-999,0.0,0.0,73,-99.99,,,0.00,,2013-02-09 07:11:00,
2013-02-09 00:21:00,27.0,19.0,-100.00,North,-999,0.0,0.0,73,-99.99,,,0.00,,2013-02-09 07:21:00,
2013-02-09 00:31:00,27.0,19.0,-100.00,North,-999,0.0,0.0,73,-99.99,,,0.00,,2013-02-09 07:31:00,
2013-02-09 00:42:00,27.0,19.0,-100.00,North,-999,0.0,0.0,73,-99.99,,,0.00,,2013-02-09 07:42:00,
2013-02-09 00:51:00,26.0,20.0,-100.00,North,-999,0.0,0.0,77,-99.99,,,0.00,,2013-02-09 07:51:00,
2013-02-09 01:01:00,26.0,20.0,-100.00,North,-999,0.0,0.0,77,-99.99,,,0.00,,2013-02-09 08:01:00,
2013-02-09 01:11:00,25.0,19.0,-100.00,North,-999,0.0,0.0,79,-99.99,,,-99.99,,2013-02-09 08:11:00,
2013-02-09 01:21:00,25.0,19.0,-100.00,North,-999,0.0,0.0,79,-99.99,,,-99.99,,2013-02-09 08:21:00,
2013-02-09 01:31:00,25.0,19.0,-100.00,North,-999,0.0,0.0,79,-99.99,,,-99.99,,2013-02-09 08:31:00,
2013-02-09 01:41:00,25.0,19.0,-100.00,North,-999,0.0,0.0,79,-99.99,,,-99.99,,2013-02-09 08:41:00,
2013-02-09 01:52:00,24.0,19.0,-100.00,North,-999,0.0,0.0,81,-99.99,,,0.00,,2013-02-09 08:52:00,
2013-02-09 02:02:00,24.0,19.0,-100.00,North,-999,0.0,0.0,81,-99.99,,,0.00,,2013-02-09 09:02:00,
2013-02-09 02:11:00,24.0,20.0,-100.00,North,-999,0.0,0.0,83,-99.99,,,0.00,,2013-02-09 09:11:00,
2013-02-09 02:21:00,24.0,20.0,-100.00,North,-999,0.0,0.0,83,-99.99,,,0.00,,2013-02-09 09:21:00,
2013-02-09 02:31:00,24.0,20.0,-100.00,North,-999,0.0,0.0,83,-99.99,,,0.00,,2013-02-09 09:31:00,
2013-02-09 02:41:00,24.0,20.0,-100.00,North,-999,0.0,0.0,83,-99.99,,,0.00,,2013-02-09 09:41:00,
2013-02-09 02:51:00,26.0,22.0,-100.00,West,275,0.0,3.0,85,-99.99,,,0.00,,2013-02-09 09:51:00,
2013-02-09 03:01:00,26.0,22.0,-100.00,West,275,0.0,3.0,85,-99.99,,,0.00,,2013-02-09 10:01:00,
2013-02-09 03:11:00,25.0,21.0,-100.00,North,-999,0.0,0.0,84,-99.99,,,0.00,,2013-02-09 10:11:00,
2013-02-09 03:21:00,25.0,21.0,-100.00,North,-999,0.0,0.0,84,-99.99,,,0.00,,2013-02-09 10:21:00,
2013-02-09 03:31:00,25.0,21.0,-100.00,North,-999,0.0,0.0,84,-99.99,,,0.00,,2013-02-09 10:31:00,
2013-02-09 03:41:00,25.0,21.0,-100.00,North,-999,0.0,0.0,84,-99.99,,,0.00,,2013-02-09 10:41:00,
2013-02-09 03:51:00,23.0,19.0,-100.00,North,-999,0.0,0.0,84,-99.99,,,0.00,,2013-02-09 10:51:00,
2013-02-09 04:01:00,23.0,19.0,-100.00,North,-999,0.0,0.0,84,-99.99,,,0.00,,2013-02-09 11:01:00,
2013-02-09 04:11:00,23.0,20.0,-100.00,North,-999,0.0,0.0,86,-99.99,,,0.00,,2013-02-09 11:11:00,
2013-02-09 04:21:00,23.0,20.0,-100.00,North,-999,0.0,0.0,86,-99.99,,,0.00,,2013-02-09 11:21:00,
2013-02-09 04:31:00,23.0,20.0,-100.00,North,-999,0.0,0.0,86,-99.99,,,0.00,,2013-02-09 11:31:00,
2013-02-09 04:41:00,23.0,20.0,-100.00,North,-999,0.0,0.0,86,-99.99,,,0.00,,2013-02-09 11:41:00,
2013-02-09 04:52:00,24.0,21.0,-100.00,WSW,255,1.0,2.0,87,-99.99,,,0.00,,2013-02-09 11:52:00,
2013-02-09 05:02:00,24.0,21.0,-100.00,WSW,255,1.0,2.0,87,-99.99,,,0.00,,2013-02-09 12:02:00,
2013-02-09 05:11:00,24.0,21.0,-100.00,West,265,4.0,6.0,87,-99.99,,,0.00,,2013-02-09 12:11:00,
2013-02-09 05:21:00,24.0,21.0,-100.00,West,265,4.0,6.0,87,-99.99,,,0.00,,2013-02-09 12:21:00,
2013-02-09 05:32:00,24.0,21.0,-100.00,West,265,4.0,6.0,87,-99.99,,,0.00,,2013-02-09 12:32:00,
2013-02-09 05:42:00,24.0,21.0,-100.00,West,265,4.0,6.0,87,-99.99,,,0.00,,2013-02-09 12:42:00,
2013-02-09 05:52:00,23.0,20.0,-100.00,WNW,290,2.0,4.0,87,-99.99,,,0.00,,2013-02-09 12:52:00,
2013-02-09 06:02:00,23.0,20.0,-100.00,WNW,290,2.0,4.0,87,-99.99,,,0.00,,2013-02-09 13:02:00,
2013-02-09 06:11:00,23.0,20.0,-100.00,West,265,7.0,9.0,87,-99.99,,,0.00,,2013-02-09 13:11:00,
2013-02-09 06:21:00,23.0,20.0,-100.00,West,265,7.0,9.0,87,-99.99,,,0.00,,2013-02-09 13:21:00,
2013-02-09 06:32:00,23.0,20.0,-100.00,West,265,7.0,9.0,87,-99.99,,,0.00,,2013-02-09 13:32:00,
2013-02-09 06:42:00,23.0,20.0,-100.00,West,265,7.0,9.0,87,-99.99,,,0.00,,2013-02-09 13:42:00,
2013-02-09 06:51:00,23.0,20.0,-100.00,West,260,6.0,8.0,87,-99.99,,,0.00,,2013-02-09 13:51:00,
2013-02-09 07:01:00,23.0,20.0,-100.00,West,260,6.0,8.0,87,-99.99,,,0.00,,2013-02-09 14:01:00,
2013-02-09 07:11:00,23.0,19.0,-100.00,WSW,250,9.0,11.0,87,-99.99,,,0.00,,2013-02-09 14:11:00,
2013-02-09 07:21:00,23.0,19.0,-100.00,WSW,250,9.0,11.0,87,-99.99,,,0.00,,2013-02-09 14:21:00,
2013-02-09 07:31:00,23.0,19.0,-100.00,WSW,250,9.0,11.0,87,-99.99,,,0.00,,2013-02-09 14:31:00,
2013-02-09 07:41:00,23.0,19.0,-100.00,WSW,250,9.0,11.0,87,-99.99,,,0.00,,2013-02-09 14:41:00,
2013-02-09 07:52:00,23.0,19.0,-100.00,WSW,250,9.0,10.0,87,-99.99,,,0.00,,2013-02-09 14:52:00,
2013-02-09 08:01:00,23.0,19.0,-100.00,WSW,250,9.0,10.0,87,-99.99,,,0.00,,2013-02-09 15:01:00,
2013-02-09 08:11:00,23.0,19.0,-100.00,WSW,250,10.0,12.0,86,-99.99,,,0.00,,2013-02-09 15:11:00,
2013-02-09 08:21:00,23.0,19.0,-100.00,WSW,250,10.0,12.0,86,-99.99,,,0.00,,2013-02-09 15:21:00,
2013-02-09 08:32:00,23.0,19.0,-100.00,WSW,250,10.0,12.0,86,-99.99,,,0.00,,2013-02-09 15:32:00,
2013-02-09 08:41:00,23.0,19.0,-100.00,WSW,250,10.0,12.0,86,-99.99,,,0.00,,2013-02-09 15:41:00,
2013-02-09 08:51:00,23.0,19.0,-100.00,West,265,9.0,11.0,85,-99.99,,,0.00,,2013-02-09 15:51:00,
2013-02-09 09:01:00,23.0,19.0,-100.00,West,265,9.0,11.0,85,-99.99,,,0.00,,2013-02-09 16:01:00,
2013-02-09 09:11:00,24.0,20.0,-100.00,WSW,255,6.0,9.0,84,-99.99,,,0.00,,2013-02-09 16:11:00,
2013-02-09 09:22:00,24.0,20.0,-100.00,WSW,255,6.0,9.0,84,-99.99,,,0.00,,2013-02-09 16:22:00,
2013-02-09 09:31:00,24.0,20.0,-100.00,WSW,255,6.0,9.0,84,-99.99,,,0.00,,2013-02-09 16:31:00,
2013-02-09 09:41:00,24.0,20.0,-100.00,WSW,255,6.0,9.0,84,-99.99,,,0.00,,2013-02-09 16:41:00,
2013-02-09 09:51:00,26.0,19.0,-100.00,WSW,250,7.0,9.0,74,-99.99,,,0.00,,2013-02-09 16:51:00,
2013-02-09 10:01:00,26.0,19.0,-100.00,WSW,250,7.0,9.0,74,-99.99,,,0.00,,2013-02-09 17:01:00,
2013-02-09 10:11:00,29.0,20.0,-100.00,WSW,245,1.0,11.0,67,-99.99,,,0.00,,2013-02-09 17:11:00,
2013-02-09 10:21:00,29.0,20.0,-100.00,WSW,245,1.0,11.0,67,-99.99,,,0.00,,2013-02-09 17:21:00,
2013-02-09 10:32:00,29.0,20.0,-100.00,WSW,245,1.0,11.0,67,-99.99,,,0.00,,2013-02-09 17:32:00,
2013-02-09 10:41:00,29.0,20.0,-100.00,WSW,245,1.0,11.0,67,-99.99,,,0.00,,2013-02-09 17:41:00,
2013-02-09 10:52:00,31.0,20.0,-100.00,WSW,245,1.0,3.0,62,-99.99,,,0.00,,2013-02-09 17:52:00,
2013-02-09 11:01:00,31.0,20.0,-100.00,WSW,245,1.0,3.0,62,-99.99,,,0.00,,2013-02-09 18:01:00,
2013-02-09 11:11:00,33.0,19.0,-100.00,WSW,250,0.0,3.0,57,-99.99,,,0.00,,2013-02-09 18:11:00,
2013-02-09 11:23:00,33.0,19.0,-100.00,WSW,250,0.0,3.0,57,-99.99,,,0.00,,2013-02-09 18:23:00,
2013-02-09 11:31:00,33.0,19.0,-100.00,WSW,250,0.0,3.0,57,-99.99,,,0.00,,2013-02-09 18:31:00,
2013-02-09 11:41:00,33.0,19.0,-100.00,WSW,250,0.0,3.0,57,-99.99,,,0.00,,2013-02-09 18:41:00,
2013-02-09 11:51:00,36.0,19.0,-100.00,WSW,250,2.0,6.0,50,-99.99,,,0.00,,2013-02-09 18:51:00,
2013-02-09 12:01:00,36.0,19.0,-100.00,WSW,250,2.0,6.0,50,-99.99,,,0.00,,2013-02-09 19:01:00,
2013-02-09 12:11:00,38.0,20.0,-100.00,WSW,250,0.0,1.0,47,-99.99,,,0.00,,2013-02-09 19:11:00,
2013-02-09 12:22:00,38.0,20.0,-100.00,WSW,250,0.0,1.0,47,-99.99,,,0.00,,2013-02-09 19:22:00,
2013-02-09 12:31:00,38.0,20.0,-100.00,WSW,250,0.0,1.0,47,-99.99,,,0.00,,2013-02-09 19:31:00,
2013-02-09 12:41:00,38.0,20.0,-100.00,WSW,250,0.0,1.0,47,-99.99,,,0.00,,2013-02-09 19:41:00,
2013-02-09 12:52:00,39.0,20.0,-100.00,WSW,250,0.0,1.0,46,-99.99,,,0.00,,2013-02-09 19:52:00,
2013-02-09 13:01:00,39.0,20.0,-100.00,WSW,250,0.0,1.0,46,-99.99,,,0.00,,2013-02-09 20:01:00,
2013-02-09 13:11:00,41.0,19.0,-100.00,North,0,0.0,1.0,40,-99.99,,,0.00,,2013-02-09 20:11:00,
2013-02-09 13:21:00,41.0,19.0,-100.00,North,0,0.0,1.0,40,-99.99,,,0.00,,2013-02-09 20:21:00,
2013-02-09 13:31:00,41.0,19.0,-100.00,North,0,0.0,1.0,40,-99.99,,,0.00,,2013-02-09 20:31:00,
2013-02-09 13:41:00,41.0,19.0,-100.00,North,0,0.0,1.0,40,-99.99,,,0.00,,2013-02-09 20:41:00,
2013-02-09 13:52:00,41.0,16.0,-100.00,North,-999,0.0,0.0,36,-99.99,,,-99.99,,2013-02-09 20:52:00,
2013-02-09 14:01:00,41.0,16.0,-100.00,North,-999,0.0,0.0,36,-99.99,,,-99.99,,2013-02-09 21:01:00,
2013-02-09 14:11:00,41.0,16.0,-100.00,East,90,0.0,1.0,35,-99.99,,,0.00,,2013-02-09 21:11:00,
2013-02-09 14:21:00,41.0,16.0,-100.00,East,90,0.0,1.0,35,-99.99,,,0.00,,2013-02-09 21:21:00,
2013-02-09 14:31:00,41.0,16.0,-100.00,East,90,0.0,1.0,35,-99.99,,,0.00,,2013-02-09 21:31:00,
2013-02-09 14:41:00,41.0,16.0,-100.00,East,90,0.0,1.0,35,-99.99,,,0.00,,2013-02-09 21:41:00,
2013-02-09 14:52:00,41.0,15.0,-100.00,SE,145,0.0,4.0,34,-99.99,,,0.00,,2013-02-09 21:52:00,
2013-02-09 15:01:00,41.0,15.0,-100.00,SE,145,0.0,4.0,34,-99.99,,,0.00,,2013-02-09 22:01:00,
2013-02-09 15:11:00,41.0,15.0,-100.00,NNE,30,3.0,4.0,34,-99.99,,,0.00,,2013-02-09 22:11:00,
2013-02-09 15:21:00,41.0,15.0,-100.00,NNE,30,3.0,4.0,34,-99.99,,,0.00,,2013-02-09 22:21:00,
2013-02-09 15:31:00,41.0,15.0,-100.00,NNE,30,3.0,4.0,34,-99.99,,,0.00,,2013-02-09 22:31:00,
2013-02-09 15:41:00,41.0,15.0,-100.00,NNE,30,3.0,4.0,34,-99.99,,,0.00,,2013-02-09 22:41:00,
2013-02-09 15:51:00,43.0,15.0,-100.00,NE,45,2.0,4.0,32,-99.99,,,0.00,,2013-02-09 22:51:00,
2013-02-09 16:01:00,43.0,15.0,-100.00,NE,45,2.0,4.0,32,-99.99,,,0.00,,2013-02-09 23:01:00,
2013-02-09 16:11:00,43.0,16.0,-100.00,NE,35,0.0,3.0,33,-99.99,,,0.00,,2013-02-09 23:11:00,
2013-02-09 16:21:00,43.0,16.0,-100.00,NE,35,0.0,3.0,33,-99.99,,,0.00,,2013-02-09 23:21:00,
2013-02-09 16:31:00,43.0,16.0,-100.00,NE,35,0.0,3.0,33,-99.99,,,0.00,,2013-02-09 23:31:00,
2013-02-09 16:41:00,43.0,16.0,-100.00,NE,35,0.0,3.0,33,-99.99,,,0.00,,2013-02-09 23:41:00,
2013-02-09 16:52:00,41.0,14.0,-100.00,East,80,1.0,6.0,34,-99.99,,,0.00,,2013-02-09 23:52:00,
2013-02-09 17:02:00,41.0,14.0,-100.00,East,80,1.0,6.0,34,-99.99,,,0.00,,2013-02-10 00:02:00,
2013-02-09 17:11:00,40.0,15.0,-100.00,SE,135,4.0,5.0,36,-99.99,,,0.00,,2013-02-10 00:11:00,
2013-02-09 17:21:00,40.0,15.0,-100.00,SE,135,4.0,5.0,36,-99.99,,,0.00,,2013-02-10 00:21:00,
2013-02-09 17:32:00,40.0,15.0,-100.00,SE,135,4.0,5.0,36,-99.99,,,0.00,,2013-02-10 00:32:00,
2013-02-09 17:41:00,40.0,15.0,-100.00,SE,135,4.0,5.0,36,-99.99,,,0.00,,2013-02-10 00:41:00,
2013-02-09 17:51:00,39.0,16.0,-100.00,SSE,165,6.0,7.0,40,-99.99,,,0.00,,2013-02-10 00:51:00,
2013-02-09 18:01:00,39.0,16.0,-100.00,SSE,165,6.0,7.0,40,-99.99,,,0.00,,2013-02-10 01:01:00,
2013-02-09 18:11:00,37.0,17.0,-100.00,SSE,165,4.0,7.0,43,-99.99,,,0.00,,2013-02-10 01:11:00,
2013-02-09 18:21:00,37.0,17.0,-100.00,SSE,165,4.0,7.0,43,-99.99,,,0.00,,2013-02-10 01:21:00,
2013-02-09 18:31:00,37.0,17.0,-100.00,SSE,165,4.0,7.0,43,-99.99,,,0.00,,2013-02-10 01:31:00,
2013-02-09 18:41:00,37.0,17.0,-100.00,SSE,165,4.0,7.0,43,-99.99,,,0.00,,2013-02-10 01:41:00,
2013-02-09 18:51:00,37.0,18.0,-100.00,South,185,4.0,9.0,45,-99.99,,,0.00,,2013-02-10 01:51:00,
2013-02-09 19:01:00,37.0,18.0,-100.00,South,185,4.0,9.0,45,-99.99,,,0.00,,2013-02-10 02:01:00,
2013-02-09 19:11:00,36.0,18.0,-100.00,SW,215,0.0,2.0,46,-99.99,,,0.00,,2013-02-10 02:11:00,
2013-02-09 19:22:00,36.0,18.0,-100.00,SW,215,0.0,2.0,46,-99.99,,,0.00,,2013-02-10 02:22:00,
2013-02-09 19:31:00,36.0,18.0,-100.00,SW,215,0.0,2.0,46,-99.99,,,0.00,,2013-02-10 02:31:00,
2013-02-09 19:41:00,36.0,18.0,-100.00,SW,215,0.0,2.0,46,-99.99,,,0.00,,2013-02-10 02:41:00,
2013-02-09 19:52:00,36.0,19.0,-100.00,North,-999,0.0,0.0,49,-99.99,,,0.00,,2013-02-10 02:52:00,
2013-02-09 20:01:00,36.0,19.0,-100.00,North,-999,0.0,0.0,49,-99.99,,,0.00,,2013-02-10 03:01:00,
2013-02-09 20:11:00,36.0,20.0,-100.00,North,-999,0.0,0.0,52,-99.99,,,0.00,,2013-02-10 03:11:00,
2013-02-09 20:21:00,36.0,20.0,-100.00,North,-999,0.0,0.0,52,-99.99,,,0.00,,2013-02-10 03:21:00,
2013-02-09 20:32:00,36.0,20.0,-100.00,North,-999,0.0,0.0,52,-99.99,,,0.00,,2013-02-10 03:32:00,
2013-02-09 20:41:00,36.0,20.0,-100.00,North,-999,0.0,0.0,52,-99.99,,,0.00,,2013-02-10 03:41:00,
2013-02-09 21:11:00,36.0,19.0,-100.00,North,5,4.0,12.0,49,-99.99,,,0.00,,2013-02-10 04:11:00,
2013-02-09 21:21:00,36.0,19.0,-100.00,North,5,4.0,12.0,49,-99.99,,,0.00,,2013-02-10 04:21:00,
2013-02-09 21:32:00,36.0,19.0,-100.00,North,5,4.0,12.0,49,-99.99,,,0.00,,2013-02-10 04:32:00,
2013-02-09 21:41:00,36.0,19.0,-100.00,North,5,4.0,12.0,49,-99.99,,,0.00,,2013-02-10 04:41:00,
2013-02-09 21:51:00,35.0,21.0,-100.00,NNE,30,6.0,14.0,57,-99.99,,,0.00,,2013-02-10 04:51:00,
2013-02-09 22:01:00,35.0,21.0,-100.00,NNE,30,6.0,14.0,57,-99.99,,,0.00,,2013-02-10 05:01:00,
2013-02-09 22:11:00,34.0,23.0,-100.00,East,80,0.0,9.0,62,-99.99,,,0.00,,2013-02-10 05:11:00,
2013-02-09 22:22:00,34.0,23.0,-100.00,East,80,0.0,9.0,62,-99.99,,,0.00,,2013-02-10 05:22:00,
2013-02-09 22:31:00,34.0,23.0,-100.00,East,80,0.0,9.0,62,-99.99,,,0.00,,2013-02-10 05:31:00,
2013-02-09 22:41:00,34.0,23.0,-100.00,East,80,0.0,9.0,62,-99.99,,,0.00,,2013-02-10 05:41:00,
2013-02-09 22:52:00,34.0,23.0,-100.00,NNE,30,0.0,9.0,64,-99.99,,,0.00,,2013-02-10 05:52:00,
2013-02-09 23:01:00,34.0,23.0,-100.00,NNE,30,0.0,9.0,64,-99.99,,,0.00,,2013-02-10 06:01:00,
2013-02-09 23:11:00,33.0,24.0,-100.00,NE,45,0.0,2.0,68,-99.99,,,0.00,,2013-02-10 06:11:00,
2013-02-09 23:21:00,33.0,24.0,-100.00,NE,45,0.0,2.0,68,-99.99,,,0.00,,2013-02-10 06:21:00,
2013-02-09 23:32:00,33.0,24.0,-100.00,NE,45,0.0,2.0,68,-99.99,,,0.00,,2013-02-10 06:32:00,
2013-02-09 23:42:00,33.0,24.0,-100.00,NE,45,0.0,2.0,68,-99.99,,,0.00,,2013-02-10 06:42:00,
2013-02-09 23:51:00,33.0,24.0,-100.00,North,-999,0.0,0.0,68,-99.99,,,0.00,,2013-02-10 06:51:00,